Woodlake, Texas
Current Conditions -  °F | °C
As of 6:53 PM on Thursday 27 Nov 2014 (Local Time) from KLFK Reporting Station
Clear Clear  
Wind Chill: 47°   Ceiling: Unl
Heat Index: 47°   Visibility: 10mi
Dew Point: 38°   Wind: 3mph
Humidity: 71%   Direction: 90°E
Pressure: 30.43"   Gusts: NA
Location:  31.03°N, 95.03°W
Report Text: KLFK 280053Z AUTO 09003KT 10SM CLR 08/03 A3043 RMK AO2 SLPNO T00830033 $
Loading
Personal Weather Stations






























Interactive Weather Map New forecast layout! Learn more

10-Day Weather Forecast

Advertisements
Track Severe Weather on mobile